Airfield :
LOGIN :

Register | Disclaimer

   EN    FR    IT 

 










Legend :    VFR   Marginal VFR   IFR   Intensive IFR   Very Intensive IFR
Visi :
Ceiling :
>= 8 km
>= 3000ft
5 to 8 km
1000 to 3000 ft
1500m to 5 km
500 to 1000 ft
800 to 1500m
200 to 500 ft
< 800m
< 200 ft
Symbols :   Thunderstorms  Fog  Heavy snow  Heavy precipitations  Wind > 20 kt
SIGMETs :     Misc.  Thunderstorms  Icing  Turbulence  Mountain Waves  Volcanic Ashes






- Airport Elevation : 31 ft
- IATA code : INV


EGPE - Inverness

CURRENT METAR :
  • 150820Z 08002KT 4000 1500S BR FEW001 BKN004 15/14 Q1005

EXPIRED METARs :
  • 150750Z 09003KT 060V120 4000 BR FEW001 BKN004 15/14 Q1005
  • 150720Z 09002KT 4500 BR FEW001 BKN005 15/14 Q1004
  • 150650Z 16001KT 4500 1500S BR FEW001 BKN005 15/14 Q1004
  • 150620Z 16001KT 6000 1500S BR FEW001 BKN005 15/14 Q1004
  • 150550Z 00000KT 5000 1500S BR SCT001 BKN004 15/14 Q1004

TAF TAF EGPE
Valid from the 15 at 09:00 until the 15 at 18:00 UTC


150803Z 1509/1518 02003KT 9999 FEW002 BKN008
PROB40
TEMPO 1509/1512 5000 RA SHRA BKN005
TEMPO 1512/1518 5000 RA SHRA BKN005
ATIS : +44 1667 464 255



MET'MAP, your aeronautical weather chart ! - Copyright ORBIFLY December 2007 - Disclaimer

ORBIFLY MET'MAP TEAM :

Programming & Development : Alexandra Zaïnal
Original concept : Baudouin d'Aumeries
Technical & hardware support : Manuel Goepfert
Assistance : Marc-Olivier Méhu




SOURCES & CREDITS :

   NOAA